Saeby, Denmark
Current Conditions -  °F | °C
As of 10:50 AM on Sunday 23 Nov 2014 (Local Time) from EKYT Reporting Station
Light Rain Light Rain  
Wind Chill: 41°   Ceiling: 1200
Heat Index: 46°   Visibility: 2.5mi
Dew Point: 43°   Wind: 13mph
Humidity: 87%   Direction: 130°SE
Pressure: 30.15"   Gusts: NA
Location:  57.33°N, 10.52°E
Report Text: EKYT 230950Z 13011KT 4000 -RA BR FEW011 BKN012 08/06 Q1021
Loading
Personal Weather Stations






























Interactive Weather Map New forecast layout! Learn more

10-Day Weather Forecast

Advertisements
Track Severe Weather on mobile